sensor_id;sensor_type;location;lat;lon;timestamp;P1;durP1;ratioP1;P2;durP2;ratioP2
50231;SDS011;36118;56.468;84.952;2023-07-20T00:04:27;8.52;;;3.83;;
50231;SDS011;36118;56.468;84.952;2023-07-20T00:09:30;5.30;;;3.30;;
50231;SDS011;36118;56.468;84.952;2023-07-20T00:14:35;6.60;;;3.30;;
50231;SDS011;36118;56.468;84.952;2023-07-20T00:19:39;6.22;;;3.38;;
50231;SDS011;36118;56.468;84.952;2023-07-20T00:24:43;8.30;;;3.70;;
50231;SDS011;36118;56.468;84.952;2023-07-20T00:29:46;8.70;;;3.80;;
50231;SDS011;36118;56.468;84.952;2023-07-20T00:34:50;10.70;;;4.00;;
50231;SDS011;36118;56.468;84.952;2023-07-20T00:39:53;7.88;;;3.67;;
50231;SDS011;36118;56.468;84.952;2023-07-20T00:44:57;7.07;;;3.85;;
50231;SDS011;36118;56.468;84.952;2023-07-20T00:50:05;7.60;;;3.65;;
50231;SDS011;36118;56.468;84.952;2023-07-20T00:55:09;7.53;;;3.60;;
50231;SDS011;36118;56.468;84.952;2023-07-20T01:00:12;10.30;;;3.97;;
50231;SDS011;36118;56.468;84.952;2023-07-20T01:05:16;12.10;;;3.88;;
50231;SDS011;36118;56.468;84.952;2023-07-20T01:10:22;11.23;;;4.47;;
50231;SDS011;36118;56.468;84.952;2023-07-20T01:15:34;9.77;;;4.10;;
50231;SDS011;36118;56.468;84.952;2023-07-20T01:20:37;12.73;;;4.30;;
50231;SDS011;36118;56.468;84.952;2023-07-20T01:36:28;9.93;;;4.43;;
50231;SDS011;36118;56.468;84.952;2023-07-20T01:41:34;6.97;;;3.88;;
50231;SDS011;36118;56.468;84.952;2023-07-20T01:46:39;11.48;;;3.65;;
50231;SDS011;36118;56.468;84.952;2023-07-20T01:51:45;6.28;;;3.35;;
50231;SDS011;36118;56.468;84.952;2023-07-20T01:56:48;7.50;;;3.80;;
50231;SDS011;36118;56.468;84.952;2023-07-20T02:01:53;7.97;;;4.03;;
50231;SDS011;36118;56.468;84.952;2023-07-20T02:06:56;9.13;;;4.28;;
50231;SDS011;36118;56.468;84.952;2023-07-20T02:11:59;11.10;;;4.10;;
50231;SDS011;36118;56.468;84.952;2023-07-20T02:17:03;9.48;;;4.18;;
50231;SDS011;36118;56.468;84.952;2023-07-20T02:22:08;10.63;;;4.82;;
50231;SDS011;36118;56.468;84.952;2023-07-20T02:27:11;13.77;;;5.22;;
50231;SDS011;36118;56.468;84.952;2023-07-20T02:32:16;15.00;;;5.20;;
50231;SDS011;36118;56.468;84.952;2023-07-20T02:37:20;16.07;;;6.37;;
50231;SDS011;36118;56.468;84.952;2023-07-20T02:42:24;19.47;;;5.73;;
50231;SDS011;36118;56.468;84.952;2023-07-20T02:47:28;11.75;;;4.30;;
50231;SDS011;36118;56.468;84.952;2023-07-20T02:52:32;15.00;;;5.43;;
50231;SDS011;36118;56.468;84.952;2023-07-20T02:57:36;10.05;;;4.45;;
50231;SDS011;36118;56.468;84.952;2023-07-20T03:02:40;16.55;;;5.65;;
50231;SDS011;36118;56.468;84.952;2023-07-20T03:07:43;14.48;;;5.47;;
50231;SDS011;36118;56.468;84.952;2023-07-20T03:12:47;11.07;;;4.77;;
50231;SDS011;36118;56.468;84.952;2023-07-20T03:17:52;10.38;;;4.90;;
50231;SDS011;36118;56.468;84.952;2023-07-20T03:22:57;15.35;;;4.72;;
50231;SDS011;36118;56.468;84.952;2023-07-20T03:27:59;8.23;;;4.18;;
50231;SDS011;36118;56.468;84.952;2023-07-20T03:33:05;12.85;;;4.38;;
50231;SDS011;36118;56.468;84.952;2023-07-20T03:38:10;16.15;;;5.60;;
50231;SDS011;36118;56.468;84.952;2023-07-20T03:43:14;9.82;;;5.72;;
50231;SDS011;36118;56.468;84.952;2023-07-20T03:48:19;11.07;;;4.25;;
50231;SDS011;36118;56.468;84.952;2023-07-20T03:53:24;10.82;;;4.93;;
50231;SDS011;36118;56.468;84.952;2023-07-20T03:58:27;10.05;;;4.20;;
50231;SDS011;36118;56.468;84.952;2023-07-20T04:03:32;9.77;;;4.18;;
50231;SDS011;36118;56.468;84.952;2023-07-20T04:08:38;6.85;;;4.18;;
50231;SDS011;36118;56.468;84.952;2023-07-20T04:13:41;11.07;;;4.40;;
50231;SDS011;36118;56.468;84.952;2023-07-20T04:18:44;9.82;;;4.80;;
50231;SDS011;36118;56.468;84.952;2023-07-20T04:23:50;10.50;;;4.47;;
50231;SDS011;36118;56.468;84.952;2023-07-20T04:28:53;6.43;;;4.20;;
50231;SDS011;36118;56.468;84.952;2023-07-20T04:34:08;12.70;;;4.10;;
50231;SDS011;36118;56.468;84.952;2023-07-20T04:39:11;18.52;;;4.65;;
50231;SDS011;36118;56.468;84.952;2023-07-20T04:44:33;12.90;;;4.55;;
50231;SDS011;36118;56.468;84.952;2023-07-20T04:49:38;10.50;;;4.60;;
50231;SDS011;36118;56.468;84.952;2023-07-20T04:54:41;7.80;;;4.93;;
50231;SDS011;36118;56.468;84.952;2023-07-20T04:59:46;7.95;;;4.18;;
50231;SDS011;36118;56.468;84.952;2023-07-20T05:04:50;16.80;;;4.85;;
50231;SDS011;36118;56.468;84.952;2023-07-20T05:09:54;11.93;;;4.20;;
50231;SDS011;36118;56.468;84.952;2023-07-20T05:14:57;10.07;;;3.97;;
50231;SDS011;36118;56.468;84.952;2023-07-20T05:20:06;8.68;;;4.10;;
50231;SDS011;36118;56.468;84.952;2023-07-20T05:25:14;10.02;;;4.30;;
50231;SDS011;36118;56.468;84.952;2023-07-20T05:30:23;10.63;;;3.90;;
50231;SDS011;36118;56.468;84.952;2023-07-20T05:35:28;9.48;;;4.50;;
50231;SDS011;36118;56.468;84.952;2023-07-20T05:40:32;12.75;;;4.63;;
50231;SDS011;36118;56.468;84.952;2023-07-20T05:45:36;8.63;;;4.28;;
50231;SDS011;36118;56.468;84.952;2023-07-20T05:50:42;12.32;;;4.00;;
50231;SDS011;36118;56.468;84.952;2023-07-20T05:55:51;9.50;;;4.25;;
50231;SDS011;36118;56.468;84.952;2023-07-20T06:00:57;8.25;;;4.20;;
50231;SDS011;36118;56.468;84.952;2023-07-20T06:06:03;9.00;;;4.20;;
50231;SDS011;36118;56.468;84.952;2023-07-20T06:11:08;7.38;;;4.20;;
50231;SDS011;36118;56.468;84.952;2023-07-20T06:16:12;11.35;;;3.97;;
50231;SDS011;36118;56.468;84.952;2023-07-20T06:21:17;8.82;;;3.97;;
50231;SDS011;36118;56.468;84.952;2023-07-20T06:26:20;9.15;;;4.47;;
50231;SDS011;36118;56.468;84.952;2023-07-20T06:31:25;9.13;;;3.87;;
50231;SDS011;36118;56.468;84.952;2023-07-20T06:36:30;8.75;;;4.10;;
50231;SDS011;36118;56.468;84.952;2023-07-20T06:41:33;6.13;;;3.80;;
50231;SDS011;36118;56.468;84.952;2023-07-20T06:46:40;8.90;;;3.60;;
50231;SDS011;36118;56.468;84.952;2023-07-20T06:51:43;7.30;;;3.70;;
50231;SDS011;36118;56.468;84.952;2023-07-20T06:56:47;9.40;;;4.10;;
50231;SDS011;36118;56.468;84.952;2023-07-20T07:02:03;8.55;;;4.00;;
50231;SDS011;36118;56.468;84.952;2023-07-20T07:07:07;9.95;;;4.30;;
50231;SDS011;36118;56.468;84.952;2023-07-20T07:12:10;9.43;;;4.78;;
50231;SDS011;36118;56.468;84.952;2023-07-20T07:17:15;10.27;;;5.68;;
50231;SDS011;36118;56.468;84.952;2023-07-20T07:22:21;8.15;;;4.05;;
50231;SDS011;36118;56.468;84.952;2023-07-20T07:27:26;11.70;;;4.00;;
50231;SDS011;36118;56.468;84.952;2023-07-20T07:32:29;6.80;;;4.50;;
50231;SDS011;36118;56.468;84.952;2023-07-20T07:37:34;9.15;;;3.92;;
50231;SDS011;36118;56.468;84.952;2023-07-20T07:42:48;9.10;;;3.58;;
50231;SDS011;36118;56.468;84.952;2023-07-20T07:47:53;8.10;;;3.97;;
50231;SDS011;36118;56.468;84.952;2023-07-20T07:52:58;6.82;;;3.70;;
50231;SDS011;36118;56.468;84.952;2023-07-20T07:58:01;8.27;;;3.95;;
50231;SDS011;36118;56.468;84.952;2023-07-20T08:03:06;6.15;;;3.90;;
50231;SDS011;36118;56.468;84.952;2023-07-20T08:08:13;12.75;;;4.30;;
50231;SDS011;36118;56.468;84.952;2023-07-20T08:13:16;6.20;;;4.28;;
50231;SDS011;36118;56.468;84.952;2023-07-20T08:18:19;7.72;;;4.35;;
50231;SDS011;36118;56.468;84.952;2023-07-20T08:23:22;6.37;;;4.27;;
50231;SDS011;36118;56.468;84.952;2023-07-20T08:28:25;7.60;;;4.40;;
50231;SDS011;36118;56.468;84.952;2023-07-20T08:33:29;6.95;;;3.80;;
50231;SDS011;36118;56.468;84.952;2023-07-20T08:38:35;9.60;;;4.22;;
50231;SDS011;36118;56.468;84.952;2023-07-20T08:43:38;6.13;;;3.95;;
50231;SDS011;36118;56.468;84.952;2023-07-20T08:48:45;7.18;;;4.50;;
50231;SDS011;36118;56.468;84.952;2023-07-20T08:53:49;7.47;;;4.03;;
50231;SDS011;36118;56.468;84.952;2023-07-20T08:58:53;9.65;;;4.40;;
50231;SDS011;36118;56.468;84.952;2023-07-20T09:03:57;10.05;;;4.65;;
50231;SDS011;36118;56.468;84.952;2023-07-20T09:09:00;5.80;;;4.53;;
50231;SDS011;36118;56.468;84.952;2023-07-20T09:14:08;8.20;;;4.20;;
50231;SDS011;36118;56.468;84.952;2023-07-20T09:19:14;7.20;;;4.22;;
50231;SDS011;36118;56.468;84.952;2023-07-20T09:24:19;7.43;;;4.05;;
50231;SDS011;36118;56.468;84.952;2023-07-20T09:29:24;8.18;;;4.45;;
50231;SDS011;36118;56.468;84.952;2023-07-20T09:34:28;6.37;;;4.30;;
50231;SDS011;36118;56.468;84.952;2023-07-20T09:39:44;8.57;;;4.32;;
50231;SDS011;36118;56.468;84.952;2023-07-20T09:44:55;9.05;;;4.20;;
50231;SDS011;36118;56.468;84.952;2023-07-20T09:49:59;7.18;;;4.40;;
50231;SDS011;36118;56.468;84.952;2023-07-20T09:55:07;15.65;;;7.57;;
50231;SDS011;36118;56.468;84.952;2023-07-20T10:00:12;9.93;;;4.50;;
50231;SDS011;36118;56.468;84.952;2023-07-20T10:05:19;9.65;;;4.50;;
50231;SDS011;36118;56.468;84.952;2023-07-20T10:10:24;10.02;;;4.20;;
50231;SDS011;36118;56.468;84.952;2023-07-20T10:15:32;9.07;;;4.38;;
50231;SDS011;36118;56.468;84.952;2023-07-20T10:20:39;12.55;;;4.45;;
50231;SDS011;36118;56.468;84.952;2023-07-20T10:26:04;12.93;;;4.85;;
50231;SDS011;36118;56.468;84.952;2023-07-20T10:31:11;10.18;;;4.88;;
50231;SDS011;36118;56.468;84.952;2023-07-20T10:36:24;11.60;;;5.30;;
50231;SDS011;36118;56.468;84.952;2023-07-20T10:41:33;13.00;;;4.90;;
50231;SDS011;36118;56.468;84.952;2023-07-20T10:46:42;8.70;;;4.70;;
50231;SDS011;36118;56.468;84.952;2023-07-20T10:51:55;11.73;;;4.68;;
50231;SDS011;36118;56.468;84.952;2023-07-20T11:02:27;10.35;;;4.53;;
50231;SDS011;36118;56.468;84.952;2023-07-20T11:07:37;11.15;;;4.63;;
50231;SDS011;36118;56.468;84.952;2023-07-20T11:12:41;10.25;;;4.68;;
50231;SDS011;36118;56.468;84.952;2023-07-20T11:17:44;10.20;;;4.97;;
50231;SDS011;36118;56.468;84.952;2023-07-20T11:22:48;17.58;;;5.18;;
50231;SDS011;36118;56.468;84.952;2023-07-20T11:27:51;10.68;;;4.53;;
50231;SDS011;36118;56.468;84.952;2023-07-20T11:32:56;9.48;;;4.93;;
50231;SDS011;36118;56.468;84.952;2023-07-20T11:38:00;37.67;;;6.97;;
50231;SDS011;36118;56.468;84.952;2023-07-20T11:43:02;11.95;;;4.90;;
50231;SDS011;36118;56.468;84.952;2023-07-20T11:48:16;14.40;;;4.70;;
50231;SDS011;36118;56.468;84.952;2023-07-20T11:53:21;13.02;;;5.18;;
50231;SDS011;36118;56.468;84.952;2023-07-20T11:58:27;13.60;;;5.85;;
50231;SDS011;36118;56.468;84.952;2023-07-20T12:03:31;13.60;;;6.10;;
50231;SDS011;36118;56.468;84.952;2023-07-20T12:08:34;13.00;;;5.63;;
50231;SDS011;36118;56.468;84.952;2023-07-20T12:13:43;11.45;;;6.28;;
50231;SDS011;36118;56.468;84.952;2023-07-20T12:18:55;15.02;;;6.18;;
50231;SDS011;36118;56.468;84.952;2023-07-20T12:24:03;14.20;;;6.82;;
50231;SDS011;36118;56.468;84.952;2023-07-20T12:29:07;12.77;;;6.47;;
50231;SDS011;36118;56.468;84.952;2023-07-20T12:34:10;15.80;;;7.40;;
50231;SDS011;36118;56.468;84.952;2023-07-20T12:39:13;16.85;;;7.05;;
50231;SDS011;36118;56.468;84.952;2023-07-20T12:44:16;16.90;;;7.50;;
50231;SDS011;36118;56.468;84.952;2023-07-20T12:49:21;12.07;;;7.45;;
50231;SDS011;36118;56.468;84.952;2023-07-20T12:54:28;16.70;;;7.93;;
50231;SDS011;36118;56.468;84.952;2023-07-20T12:59:34;10.43;;;8.43;;
50231;SDS011;36118;56.468;84.952;2023-07-20T13:04:37;15.50;;;10.25;;
50231;SDS011;36118;56.468;84.952;2023-07-20T13:09:41;13.85;;;8.82;;
50231;SDS011;36118;56.468;84.952;2023-07-20T13:14:44;14.05;;;9.60;;
50231;SDS011;36118;56.468;84.952;2023-07-20T13:19:50;12.95;;;10.63;;
50231;SDS011;36118;56.468;84.952;2023-07-20T13:24:54;15.00;;;10.85;;
50231;SDS011;36118;56.468;84.952;2023-07-20T13:29:58;14.82;;;11.32;;
50231;SDS011;36118;56.468;84.952;2023-07-20T13:35:06;16.73;;;10.50;;
50231;SDS011;36118;56.468;84.952;2023-07-20T13:40:09;16.08;;;11.48;;
50231;SDS011;36118;56.468;84.952;2023-07-20T13:45:15;20.33;;;11.55;;
50231;SDS011;36118;56.468;84.952;2023-07-20T13:50:19;15.10;;;12.15;;
50231;SDS011;36118;56.468;84.952;2023-07-20T13:55:41;17.98;;;11.32;;
50231;SDS011;36118;56.468;84.952;2023-07-20T14:00:49;15.30;;;11.05;;
50231;SDS011;36118;56.468;84.952;2023-07-20T14:05:52;18.08;;;11.57;;
50231;SDS011;36118;56.468;84.952;2023-07-20T14:10:59;14.35;;;12.50;;
50231;SDS011;36118;56.468;84.952;2023-07-20T14:16:06;17.95;;;12.80;;
50231;SDS011;36118;56.468;84.952;2023-07-20T14:21:11;17.70;;;13.63;;
50231;SDS011;36118;56.468;84.952;2023-07-20T14:26:14;18.15;;;14.02;;
50231;SDS011;36118;56.468;84.952;2023-07-20T14:31:19;21.65;;;15.52;;
50231;SDS011;36118;56.468;84.952;2023-07-20T14:36:24;20.63;;;14.10;;
50231;SDS011;36118;56.468;84.952;2023-07-20T14:41:28;21.02;;;15.63;;
50231;SDS011;36118;56.468;84.952;2023-07-20T14:46:32;21.95;;;14.80;;
50231;SDS011;36118;56.468;84.952;2023-07-20T14:51:35;18.23;;;14.55;;
50231;SDS011;36118;56.468;84.952;2023-07-20T14:56:39;17.60;;;13.38;;
50231;SDS011;36118;56.468;84.952;2023-07-20T15:01:42;17.52;;;13.73;;
50231;SDS011;36118;56.468;84.952;2023-07-20T15:06:48;16.40;;;13.60;;
50231;SDS011;36118;56.468;84.952;2023-07-20T15:11:51;17.67;;;14.15;;
50231;SDS011;36118;56.468;84.952;2023-07-20T15:16:54;19.48;;;14.32;;
50231;SDS011;36118;56.468;84.952;2023-07-20T15:21:59;22.85;;;14.98;;
50231;SDS011;36118;56.468;84.952;2023-07-20T15:27:03;22.08;;;15.13;;
50231;SDS011;36118;56.468;84.952;2023-07-20T15:32:07;20.02;;;16.55;;
50231;SDS011;36118;56.468;84.952;2023-07-20T15:37:13;22.75;;;17.95;;
50231;SDS011;36118;56.468;84.952;2023-07-20T15:42:17;18.60;;;15.52;;
50231;SDS011;36118;56.468;84.952;2023-07-20T15:47:22;21.50;;;16.23;;
50231;SDS011;36118;56.468;84.952;2023-07-20T15:52:29;19.83;;;15.35;;
50231;SDS011;36118;56.468;84.952;2023-07-20T15:57:32;18.40;;;15.23;;
50231;SDS011;36118;56.468;84.952;2023-07-20T16:02:38;19.53;;;16.57;;
50231;SDS011;36118;56.468;84.952;2023-07-20T16:07:42;21.67;;;16.37;;
50231;SDS011;36118;56.468;84.952;2023-07-20T16:12:48;18.85;;;16.50;;
50231;SDS011;36118;56.468;84.952;2023-07-20T16:17:53;21.13;;;17.40;;
50231;SDS011;36118;56.468;84.952;2023-07-20T16:22:58;18.80;;;15.80;;
50231;SDS011;36118;56.468;84.952;2023-07-20T16:28:02;15.57;;;13.93;;
50231;SDS011;36118;56.468;84.952;2023-07-20T16:33:07;16.93;;;15.13;;
50231;SDS011;36118;56.468;84.952;2023-07-20T16:38:13;19.30;;;15.95;;
50231;SDS011;36118;56.468;84.952;2023-07-20T16:43:17;21.02;;;15.35;;
50231;SDS011;36118;56.468;84.952;2023-07-20T16:48:40;22.27;;;16.40;;
50231;SDS011;36118;56.468;84.952;2023-07-20T16:53:49;22.02;;;16.80;;
50231;SDS011;36118;56.468;84.952;2023-07-20T16:58:53;21.13;;;17.73;;
50231;SDS011;36118;56.468;84.952;2023-07-20T17:03:56;20.35;;;18.02;;
50231;SDS011;36118;56.468;84.952;2023-07-20T17:09:00;23.40;;;19.95;;
50231;SDS011;36118;56.468;84.952;2023-07-20T17:14:04;22.13;;;18.45;;
50231;SDS011;36118;56.468;84.952;2023-07-20T17:19:09;20.77;;;17.10;;
50231;SDS011;36118;56.468;84.952;2023-07-20T17:24:15;21.83;;;15.85;;
50231;SDS011;36118;56.468;84.952;2023-07-20T17:29:38;18.58;;;16.58;;
50231;SDS011;36118;56.468;84.952;2023-07-20T17:34:42;20.40;;;16.52;;
50231;SDS011;36118;56.468;84.952;2023-07-20T17:39:49;19.80;;;17.40;;
50231;SDS011;36118;56.468;84.952;2023-07-20T17:44:56;19.40;;;17.00;;
50231;SDS011;36118;56.468;84.952;2023-07-20T17:50:02;19.60;;;17.52;;
50231;SDS011;36118;56.468;84.952;2023-07-20T17:55:08;19.52;;;17.52;;
50231;SDS011;36118;56.468;84.952;2023-07-20T18:00:11;20.85;;;17.65;;
50231;SDS011;36118;56.468;84.952;2023-07-20T18:05:19;19.30;;;17.25;;
50231;SDS011;36118;56.468;84.952;2023-07-20T18:10:23;20.67;;;18.57;;
50231;SDS011;36118;56.468;84.952;2023-07-20T18:15:26;18.98;;;17.00;;
50231;SDS011;36118;56.468;84.952;2023-07-20T18:20:31;21.13;;;17.87;;
50231;SDS011;36118;56.468;84.952;2023-07-20T18:25:38;19.33;;;17.30;;
50231;SDS011;36118;56.468;84.952;2023-07-20T18:30:41;19.20;;;17.23;;
50231;SDS011;36118;56.468;84.952;2023-07-20T18:35:52;17.85;;;16.05;;
50231;SDS011;36118;56.468;84.952;2023-07-20T18:40:56;18.83;;;16.40;;
50231;SDS011;36118;56.468;84.952;2023-07-20T18:46:00;18.25;;;16.27;;
50231;SDS011;36118;56.468;84.952;2023-07-20T18:51:04;19.25;;;15.30;;
50231;SDS011;36118;56.468;84.952;2023-07-20T18:56:11;19.92;;;14.90;;
50231;SDS011;36118;56.468;84.952;2023-07-20T19:01:15;17.30;;;15.32;;
50231;SDS011;36118;56.468;84.952;2023-07-20T19:06:19;17.48;;;15.20;;
50231;SDS011;36118;56.468;84.952;2023-07-20T19:11:22;18.52;;;14.95;;
50231;SDS011;36118;56.468;84.952;2023-07-20T19:16:29;17.50;;;15.13;;
50231;SDS011;36118;56.468;84.952;2023-07-20T19:21:37;19.48;;;14.73;;
50231;SDS011;36118;56.468;84.952;2023-07-20T19:26:40;18.73;;;15.23;;
50231;SDS011;36118;56.468;84.952;2023-07-20T19:31:43;18.67;;;15.10;;
50231;SDS011;36118;56.468;84.952;2023-07-20T19:36:46;19.35;;;16.40;;
50231;SDS011;36118;56.468;84.952;2023-07-20T19:41:51;19.45;;;16.55;;
50231;SDS011;36118;56.468;84.952;2023-07-20T19:46:57;19.48;;;17.30;;
50231;SDS011;36118;56.468;84.952;2023-07-20T19:52:01;22.73;;;17.07;;
50231;SDS011;36118;56.468;84.952;2023-07-20T19:57:06;20.40;;;17.13;;
50231;SDS011;36118;56.468;84.952;2023-07-20T20:02:29;19.10;;;17.10;;
50231;SDS011;36118;56.468;84.952;2023-07-20T20:07:36;21.73;;;18.75;;
50231;SDS011;36118;56.468;84.952;2023-07-20T20:17:44;22.27;;;17.73;;
50231;SDS011;36118;56.468;84.952;2023-07-20T20:22:47;22.50;;;17.17;;
50231;SDS011;36118;56.468;84.952;2023-07-20T20:27:50;23.63;;;18.42;;
50231;SDS011;36118;56.468;84.952;2023-07-20T20:32:54;21.65;;;18.42;;
50231;SDS011;36118;56.468;84.952;2023-07-20T20:37:59;22.92;;;18.60;;
50231;SDS011;36118;56.468;84.952;2023-07-20T20:43:02;20.58;;;17.40;;
50231;SDS011;36118;56.468;84.952;2023-07-20T20:48:09;18.08;;;16.17;;
50231;SDS011;36118;56.468;84.952;2023-07-20T20:53:12;19.48;;;15.57;;
50231;SDS011;36118;56.468;84.952;2023-07-20T20:58:17;18.20;;;15.70;;
50231;SDS011;36118;56.468;84.952;2023-07-20T21:03:23;21.55;;;15.60;;
50231;SDS011;36118;56.468;84.952;2023-07-20T21:08:26;19.20;;;16.80;;
50231;SDS011;36118;56.468;84.952;2023-07-20T21:13:30;19.17;;;16.52;;
50231;SDS011;36118;56.468;84.952;2023-07-20T21:18:35;20.25;;;17.35;;
50231;SDS011;36118;56.468;84.952;2023-07-20T21:23:40;23.60;;;17.63;;
50231;SDS011;36118;56.468;84.952;2023-07-20T21:28:43;21.08;;;18.92;;
50231;SDS011;36118;56.468;84.952;2023-07-20T21:33:46;21.73;;;19.48;;
50231;SDS011;36118;56.468;84.952;2023-07-20T21:38:49;22.08;;;19.88;;
50231;SDS011;36118;56.468;84.952;2023-07-20T21:43:52;22.85;;;19.65;;
50231;SDS011;36118;56.468;84.952;2023-07-20T21:48:58;26.02;;;21.08;;
50231;SDS011;36118;56.468;84.952;2023-07-20T21:54:02;27.30;;;21.27;;
50231;SDS011;36118;56.468;84.952;2023-07-20T21:59:04;28.88;;;22.80;;
50231;SDS011;36118;56.468;84.952;2023-07-20T22:04:08;25.83;;;22.30;;
50231;SDS011;36118;56.468;84.952;2023-07-20T22:09:12;25.55;;;21.98;;
50231;SDS011;36118;56.468;84.952;2023-07-20T22:14:18;23.90;;;21.27;;
50231;SDS011;36118;56.468;84.952;2023-07-20T22:19:22;23.02;;;20.60;;
50231;SDS011;36118;56.468;84.952;2023-07-20T22:24:27;24.10;;;20.17;;
50231;SDS011;36118;56.468;84.952;2023-07-20T22:29:30;25.42;;;20.13;;
50231;SDS011;36118;56.468;84.952;2023-07-20T22:34:37;22.38;;;19.20;;
50231;SDS011;36118;56.468;84.952;2023-07-20T22:39:41;22.20;;;18.98;;
50231;SDS011;36118;56.468;84.952;2023-07-20T22:44:44;22.00;;;19.25;;
50231;SDS011;36118;56.468;84.952;2023-07-20T22:49:47;23.05;;;18.58;;
50231;SDS011;36118;56.468;84.952;2023-07-20T22:54:50;18.65;;;16.80;;
50231;SDS011;36118;56.468;84.952;2023-07-20T22:59:53;18.05;;;16.15;;
50231;SDS011;36118;56.468;84.952;2023-07-20T23:04:57;19.65;;;15.30;;
50231;SDS011;36118;56.468;84.952;2023-07-20T23:10:00;15.35;;;13.73;;
50231;SDS011;36118;56.468;84.952;2023-07-20T23:15:06;14.90;;;13.27;;
50231;SDS011;36118;56.468;84.952;2023-07-20T23:20:11;12.88;;;11.60;;
50231;SDS011;36118;56.468;84.952;2023-07-20T23:25:21;11.93;;;10.05;;
50231;SDS011;36118;56.468;84.952;2023-07-20T23:30:25;12.27;;;9.43;;
50231;SDS011;36118;56.468;84.952;2023-07-20T23:35:33;10.63;;;9.00;;
50231;SDS011;36118;56.468;84.952;2023-07-20T23:40:40;11.05;;;8.48;;
50231;SDS011;36118;56.468;84.952;2023-07-20T23:45:46;11.02;;;7.88;;
50231;SDS011;36118;56.468;84.952;2023-07-20T23:50:49;9.20;;;7.75;;
50231;SDS011;36118;56.468;84.952;2023-07-20T23:55:55;9.13;;;7.00;;
